createdAt,value
2022-08-23T00:00:13.482Z,95.40
2022-08-23T00:02:41.230Z,95.80
2022-08-23T00:05:10.723Z,95.90
2022-08-23T00:07:43.973Z,95.50
2022-08-23T00:10:13.691Z,95.60
2022-08-23T00:12:41.623Z,95.60
2022-08-23T00:15:10.613Z,96.20
2022-08-23T00:17:37.885Z,95.70
2022-08-23T00:20:08.566Z,95.80
2022-08-23T00:22:37.363Z,95.90
2022-08-23T00:25:05.771Z,96.00
2022-08-23T00:27:33.556Z,95.90
2022-08-23T00:30:00.795Z,96.00
2022-08-23T00:32:30.559Z,96.10
2022-08-23T00:34:58.527Z,96.10
2022-08-23T00:37:26.786Z,96.00
2022-08-23T00:39:54.077Z,96.00
2022-08-23T00:42:42.092Z,96.10
2022-08-23T00:45:28.957Z,96.30
2022-08-23T00:47:57.933Z,96.30
2022-08-23T00:50:52.215Z,96.30
2022-08-23T00:53:34.266Z,96.60
2022-08-23T00:56:04.171Z,96.50
2022-08-23T00:58:31.317Z,96.60
2022-08-23T01:01:01.120Z,96.60
2022-08-23T01:03:38.698Z,96.60
2022-08-23T01:06:18.508Z,96.60
2022-08-23T01:08:51.451Z,96.80
2022-08-23T01:11:33.454Z,96.70
2022-08-23T01:14:12.040Z,96.60
2022-08-23T01:16:48.588Z,96.50
2022-08-23T01:19:31.666Z,96.80
2022-08-23T01:22:24.440Z,97.00
2022-08-23T01:25:07.497Z,97.10
2022-08-23T01:27:36.793Z,97.00
2022-08-23T01:30:08.147Z,96.90
2022-08-23T01:32:43.348Z,96.80
2022-08-23T01:35:10.601Z,96.90
2022-08-23T01:37:38.409Z,97.10
2022-08-23T01:40:06.572Z,97.20
2022-08-23T01:42:33.743Z,97.40
2022-08-23T01:45:01.440Z,97.40
2022-08-23T01:47:28.701Z,97.40
2022-08-23T01:49:55.853Z,97.40
2022-08-23T01:52:23.105Z,97.40
2022-08-23T01:54:50.104Z,97.30
2022-08-23T01:57:17.608Z,97.40
2022-08-23T01:59:44.585Z,97.60
2022-08-23T02:02:11.724Z,97.30
2022-08-23T02:04:38.841Z,97.30
2022-08-23T02:07:05.944Z,97.50
2022-08-23T02:09:33.269Z,97.50
2022-08-23T02:12:00.346Z,97.50
2022-08-23T02:14:27.398Z,97.60
2022-08-23T02:17:03.840Z,97.80
2022-08-23T02:19:34.318Z,97.70
2022-08-23T02:22:01.511Z,97.80
2022-08-23T02:24:28.649Z,97.80
2022-08-23T02:26:58.109Z,97.90
2022-08-23T02:29:26.903Z,97.80
2022-08-23T02:31:54.463Z,98.10
2022-08-23T02:34:23.746Z,98.10
2022-08-23T02:36:53.304Z,98.10
2022-08-23T02:39:21.174Z,98.00
2022-08-23T02:41:48.487Z,98.00
2022-08-23T02:44:16.035Z,97.90
2022-08-23T02:46:43.445Z,97.90
2022-08-23T02:49:10.514Z,98.00
2022-08-23T02:51:38.619Z,98.00
2022-08-23T02:54:06.601Z,98.10
2022-08-23T02:56:34.155Z,98.10
2022-08-23T02:59:01.234Z,98.10
2022-08-23T03:01:38.272Z,98.00
2022-08-23T03:04:08.239Z,97.80
2022-08-23T03:06:35.485Z,97.80
2022-08-23T03:09:04.245Z,97.90
2022-08-23T03:11:31.274Z,98.10
2022-08-23T03:13:58.471Z,98.20
2022-08-23T03:16:25.760Z,98.40
2022-08-23T03:18:53.101Z,98.70
2022-08-23T03:21:21.236Z,98.60
2022-08-23T03:23:48.710Z,98.50
2022-08-23T03:26:16.170Z,98.70
2022-08-23T03:28:44.582Z,98.60
2022-08-23T03:31:13.267Z,98.70
2022-08-23T03:33:40.671Z,98.60
2022-08-23T03:36:10.614Z,98.80
2022-08-23T03:38:39.940Z,98.90
2022-08-23T03:41:08.836Z,98.90
2022-08-23T03:43:36.466Z,98.70
2022-08-23T03:46:03.820Z,99.00
2022-08-23T03:48:30.954Z,99.10
2022-08-23T03:50:59.651Z,98.90
2022-08-23T03:53:26.796Z,99.00
2022-08-23T03:55:56.423Z,98.80
2022-08-23T03:58:24.364Z,99.00
2022-08-23T04:00:51.400Z,99.00
2022-08-23T04:03:18.579Z,99.10
2022-08-23T04:05:46.975Z,99.00
2022-08-23T04:08:14.155Z,99.10
2022-08-23T04:10:45.161Z,98.80
2022-08-23T04:13:12.166Z,98.80
2022-08-23T04:15:39.805Z,98.90
2022-08-23T04:18:10.742Z,98.80
2022-08-23T04:20:38.203Z,98.90
2022-08-23T04:23:05.507Z,99.00
2022-08-23T04:25:35.536Z,99.00
2022-08-23T04:28:03.623Z,99.20
2022-08-23T04:30:31.512Z,99.10
2022-08-23T04:32:58.695Z,99.10
2022-08-23T04:35:26.292Z,99.20
2022-08-23T04:37:56.152Z,99.40
2022-08-23T04:40:41.511Z,99.40
2022-08-23T04:43:08.876Z,99.40
2022-08-23T04:45:39.334Z,99.20
2022-08-23T04:48:11.834Z,99.10
2022-08-23T04:50:40.155Z,99.10
2022-08-23T04:53:07.568Z,99.50
2022-08-23T04:55:36.550Z,99.40
2022-08-23T04:58:04.643Z,99.30
2022-08-23T05:00:32.085Z,99.30
2022-08-23T05:02:59.422Z,99.20
2022-08-23T05:05:27.748Z,99.30
2022-08-23T05:07:55.697Z,99.50
2022-08-23T05:10:24.681Z,99.60
2022-08-23T05:12:51.835Z,99.70
2022-08-23T05:15:19.047Z,99.60
2022-08-23T05:17:46.242Z,99.80
2022-08-23T05:20:13.461Z,99.80
2022-08-23T05:22:42.284Z,99.80
2022-08-23T05:25:10.109Z,99.80
2022-08-23T05:27:38.202Z,99.80
2022-08-23T05:30:08.148Z,99.80
2022-08-23T05:32:42.312Z,99.50
2022-08-23T05:35:09.688Z,99.40
2022-08-23T05:37:36.788Z,99.60
2022-08-23T05:40:04.763Z,99.80
2022-08-23T05:42:32.208Z,99.90
2022-08-23T05:44:59.186Z,99.90
2022-08-23T05:47:28.135Z,99.90
2022-08-23T05:50:01.923Z,99.90
2022-08-23T05:52:29.005Z,99.90
2022-08-23T05:54:56.106Z,99.90
2022-08-23T05:57:23.243Z,99.90
2022-08-23T05:59:50.282Z,99.90
2022-08-23T06:02:17.424Z,99.90
2022-08-23T06:04:44.474Z,99.80
2022-08-23T06:07:11.871Z,99.90
2022-08-23T06:09:39.176Z,99.80
2022-08-23T06:12:06.492Z,99.70
2022-08-23T06:14:33.565Z,99.80
2022-08-23T06:17:00.832Z,99.80
2022-08-23T06:19:28.172Z,99.80
2022-08-23T06:21:55.720Z,99.80
2022-08-23T06:24:23.412Z,99.50
2022-08-23T06:26:50.511Z,99.60
2022-08-23T06:29:20.065Z,99.40
2022-08-23T06:31:50.290Z,99.50
2022-08-23T06:34:33.614Z,99.60
2022-08-23T06:37:18.974Z,99.90
2022-08-23T06:39:46.470Z,99.90
2022-08-23T06:42:50.245Z,99.40
2022-08-23T06:45:04.346Z,99.20
2022-08-23T06:47:31.777Z,99.80
2022-08-23T06:50:02.118Z,99.10
2022-08-23T06:52:29.477Z,99.20
2022-08-23T06:54:57.785Z,98.80
2022-08-23T06:57:25.158Z,98.80
2022-08-23T06:59:52.225Z,98.70
2022-08-23T07:02:19.380Z,98.70
2022-08-23T07:04:46.532Z,98.70
2022-08-23T07:07:13.685Z,98.80
2022-08-23T07:09:41.390Z,99.00
2022-08-23T07:12:08.983Z,99.50
2022-08-23T07:14:37.593Z,99.10
2022-08-23T07:17:04.782Z,98.90
2022-08-23T07:19:34.896Z,98.80
2022-08-23T07:22:04.314Z,98.80
2022-08-23T07:24:33.809Z,98.80
2022-08-23T07:27:06.475Z,98.60
2022-08-23T07:29:35.099Z,98.50
2022-08-23T07:32:02.311Z,98.70
2022-08-23T07:34:29.695Z,98.30
2022-08-23T07:36:56.841Z,98.10
2022-08-23T07:39:26.591Z,97.90
2022-08-23T07:41:53.805Z,97.50
2022-08-23T07:44:23.540Z,97.50
2022-08-23T07:46:55.009Z,98.90
2022-08-23T07:49:22.670Z,97.70
2022-08-23T07:51:58.367Z,97.60
2022-08-23T07:54:25.932Z,97.00
2022-08-23T07:56:53.141Z,96.40
2022-08-23T07:59:20.191Z,96.60
2022-08-23T08:01:47.319Z,96.30
2022-08-23T08:04:14.481Z,96.70
2022-08-23T08:06:46.380Z,97.00
2022-08-23T08:09:15.369Z,97.10
2022-08-23T08:11:47.460Z,96.00
2022-08-23T08:14:15.495Z,97.00
2022-08-23T08:16:46.741Z,96.40
2022-08-23T08:19:18.912Z,97.00
2022-08-23T08:21:48.411Z,96.90
2022-08-23T08:24:17.763Z,96.20
2022-08-23T08:26:45.685Z,96.70
2022-08-23T08:29:13.849Z,96.70
2022-08-23T08:31:43.183Z,96.90
2022-08-23T08:34:11.114Z,96.70
2022-08-23T08:36:51.999Z,95.90
2022-08-23T08:39:23.792Z,95.80
2022-08-23T08:42:04.155Z,95.70
2022-08-23T08:44:55.351Z,95.30
2022-08-23T08:47:27.792Z,95.90
2022-08-23T08:50:10.867Z,97.50
2022-08-23T08:52:50.399Z,96.00
2022-08-23T08:55:34.107Z,96.30
2022-08-23T08:58:06.442Z,97.20
2022-08-23T09:00:37.714Z,97.60
2022-08-23T09:03:15.387Z,96.40
2022-08-23T09:06:18.457Z,95.10
2022-08-23T09:09:11.889Z,94.90
2022-08-23T09:11:58.724Z,94.90
2022-08-23T09:14:55.100Z,97.00
2022-08-23T09:17:26.473Z,95.90
2022-08-23T09:19:58.898Z,95.40
2022-08-23T09:22:40.395Z,95.00
2022-08-23T09:25:12.018Z,95.80
2022-08-23T09:27:41.427Z,95.10
2022-08-23T09:30:09.988Z,95.10
2022-08-23T09:32:41.283Z,95.30
2022-08-23T09:35:17.367Z,94.10
2022-08-23T09:38:22.375Z,94.50
2022-08-23T09:40:51.011Z,94.80
2022-08-23T09:43:27.007Z,95.50
2022-08-23T09:45:58.847Z,93.60
2022-08-23T09:48:42.012Z,92.30
2022-08-23T09:51:19.565Z,93.90
2022-08-23T09:53:50.829Z,91.30
2022-08-23T09:56:26.402Z,94.90
2022-08-23T09:58:57.101Z,92.40
2022-08-23T10:01:32.561Z,92.80
2022-08-23T10:04:16.099Z,90.20
2022-08-23T10:06:46.450Z,91.10
2022-08-23T10:09:24.142Z,94.10
2022-08-23T10:11:51.355Z,92.70
2022-08-23T10:14:23.403Z,90.40
2022-08-23T10:17:17.551Z,89.70
2022-08-23T10:20:09.331Z,90.20
2022-08-23T10:22:55.994Z,92.50
2022-08-23T10:26:07.353Z,89.00
2022-08-23T10:29:25.399Z,89.50
2022-08-23T10:32:05.155Z,89.20
2022-08-23T10:34:50.912Z,88.60
2022-08-23T10:37:24.330Z,90.10
2022-08-23T10:40:17.547Z,86.60
2022-08-23T10:43:13.983Z,86.70
2022-08-23T10:45:45.917Z,87.00
2022-08-23T10:48:22.330Z,84.90
2022-08-23T10:51:01.114Z,85.60
2022-08-23T10:53:46.576Z,82.60
2022-08-23T10:56:21.092Z,83.40
2022-08-23T10:59:02.341Z,83.30
2022-08-23T11:01:29.468Z,79.60
2022-08-23T11:04:15.205Z,80.50
2022-08-23T11:06:47.376Z,80.70
2022-08-23T11:09:25.810Z,80.60
2022-08-23T11:12:11.242Z,82.50
2022-08-23T11:14:40.691Z,76.10
2022-08-23T11:17:27.550Z,76.00
2022-08-23T11:19:59.496Z,75.90
2022-08-23T11:22:28.165Z,75.30
2022-08-23T11:25:00.184Z,74.90
2022-08-23T11:27:40.593Z,73.30
2022-08-23T11:30:32.670Z,70.10
2022-08-23T11:33:27.276Z,68.10
2022-08-23T11:36:16.743Z,68.80
2022-08-23T11:38:43.827Z,72.30
2022-08-23T11:41:25.117Z,71.50
2022-08-23T11:44:07.160Z,69.50
2022-08-23T11:46:36.268Z,69.70
2022-08-23T11:49:21.730Z,67.70
2022-08-23T11:52:00.997Z,69.60
2022-08-23T11:55:01.713Z,69.20
2022-08-23T11:57:50.347Z,67.80
2022-08-23T12:00:27.733Z,67.60
2022-08-23T12:03:02.568Z,67.60
2022-08-23T12:06:01.221Z,68.00
2022-08-23T12:08:47.815Z,64.30
2022-08-23T12:11:17.215Z,62.90
2022-08-23T12:14:01.225Z,65.50
2022-08-23T12:16:32.387Z,63.10
2022-08-23T12:19:06.928Z,61.00
2022-08-23T12:21:39.541Z,59.80
2022-08-23T12:24:18.733Z,58.80
2022-08-23T12:27:04.881Z,60.00
2022-08-23T12:29:44.206Z,59.00
2022-08-23T12:32:19.842Z,60.00
2022-08-23T12:34:59.577Z,56.70
2022-08-23T12:37:37.573Z,56.70
2022-08-23T12:40:09.423Z,58.10
2022-08-23T12:42:38.800Z,56.70
2022-08-23T12:45:20.169Z,58.40
2022-08-23T12:48:02.721Z,58.70
2022-08-23T15:15:49.080Z,77.00
2022-08-23T15:18:17.126Z,75.10
2022-08-23T15:20:45.841Z,73.00
2022-08-23T15:23:13.645Z,62.10
2022-08-23T15:25:42.822Z,64.30
2022-08-23T15:40:35.657Z,51.40
2022-08-23T15:43:03.620Z,52.90
2022-08-23T15:45:32.631Z,51.40
2022-08-23T15:48:01.349Z,50.60
2022-08-23T15:50:33.272Z,50.40
2022-08-23T15:53:01.422Z,50.40
2022-08-23T15:55:32.967Z,49.00
2022-08-23T15:58:00.622Z,49.60
2022-08-23T16:00:29.400Z,49.80
2022-08-23T16:03:19.458Z,49.50
2022-08-23T16:05:47.873Z,49.60
2022-08-23T16:08:38.289Z,48.70
2022-08-23T16:11:12.199Z,49.60
2022-08-23T16:13:42.758Z,49.10
2022-08-23T16:16:25.262Z,49.30
2022-08-23T16:18:54.235Z,49.40
2022-08-23T16:21:27.138Z,51.20
2022-08-23T16:23:55.559Z,50.20
2022-08-23T16:26:34.568Z,49.90
2022-08-23T16:29:05.900Z,50.40
2022-08-23T16:31:38.558Z,50.70
2022-08-23T16:34:09.480Z,50.80
2022-08-23T16:36:37.218Z,49.50
2022-08-23T16:39:05.934Z,51.50
2022-08-23T16:41:33.122Z,51.00
2022-08-23T16:44:00.196Z,51.60
2022-08-23T16:46:28.983Z,51.70
2022-08-23T16:48:56.099Z,53.10
2022-08-23T16:51:23.561Z,54.30
2022-08-23T16:54:02.365Z,53.90
2022-08-23T16:56:31.747Z,55.40
2022-08-23T16:58:59.417Z,56.30
2022-08-23T17:01:27.094Z,56.70
2022-08-23T17:03:54.420Z,57.10
2022-08-23T17:06:21.977Z,58.20
2022-08-23T17:08:49.124Z,59.00
2022-08-23T17:11:19.340Z,58.30
2022-08-23T17:13:47.150Z,58.50
2022-08-23T17:16:14.420Z,71.60
2022-08-23T17:18:41.879Z,60.00
2022-08-23T17:21:09.399Z,71.70
2022-08-23T17:23:39.270Z,60.40
2022-08-23T17:28:36.083Z,59.90
2022-08-23T17:31:03.201Z,61.90
2022-08-23T17:33:30.397Z,62.00
2022-08-23T17:35:57.602Z,62.30
2022-08-23T17:38:24.980Z,62.80
2022-08-23T17:40:52.926Z,62.90
2022-08-23T17:43:20.007Z,62.80
2022-08-23T17:45:50.453Z,63.80
2022-08-23T17:48:20.535Z,63.50
2022-08-23T17:50:48.080Z,63.90
2022-08-23T17:53:17.675Z,64.30
2022-08-23T17:55:44.924Z,64.80
2022-08-23T17:58:16.556Z,65.60
2022-08-23T18:00:43.721Z,65.20
2022-08-23T18:03:10.916Z,65.80
2022-08-23T18:05:41.165Z,66.00
2022-08-23T18:08:09.346Z,66.10
2022-08-23T18:10:36.758Z,66.30
2022-08-23T18:13:04.136Z,66.80
2022-08-23T18:15:31.697Z,67.20
2022-08-23T18:18:00.073Z,67.60
2022-08-23T18:20:28.689Z,67.80
2022-08-23T18:22:57.522Z,68.40
2022-08-23T18:25:25.366Z,68.40
2022-08-23T18:28:08.544Z,68.90
2022-08-23T18:30:56.062Z,69.20
2022-08-23T18:33:26.588Z,69.50
2022-08-23T18:35:59.855Z,69.80
2022-08-23T18:38:27.002Z,69.60
2022-08-23T18:40:54.145Z,70.00
2022-08-23T18:43:26.004Z,70.40
2022-08-23T18:45:55.295Z,70.90
2022-08-23T18:48:23.952Z,70.90
2022-08-23T18:50:51.593Z,70.80
2022-08-23T18:53:19.687Z,71.10
2022-08-23T18:55:47.102Z,71.40
2022-08-23T18:58:14.142Z,71.20
2022-08-23T19:00:42.058Z,71.80
2022-08-23T19:03:11.178Z,71.80
2022-08-23T19:05:42.177Z,71.30
2022-08-23T19:08:11.836Z,72.00
2022-08-23T19:10:40.030Z,72.10
2022-08-23T19:13:09.316Z,72.30
2022-08-23T19:15:37.480Z,72.40
2022-08-23T19:18:04.936Z,72.60
2022-08-23T19:20:32.616Z,72.60
2022-08-23T19:23:00.272Z,99.00
2022-08-23T19:25:27.956Z,76.60
2022-08-23T19:27:58.868Z,73.30
2022-08-23T19:30:28.597Z,73.40
2022-08-23T19:32:56.833Z,73.60
2022-08-23T19:35:24.158Z,73.80
2022-08-23T19:37:51.339Z,73.80
2022-08-23T19:40:19.140Z,73.90
2022-08-23T19:42:46.452Z,73.90
2022-08-23T19:45:13.847Z,74.30
2022-08-23T19:47:41.140Z,74.70
2022-08-23T19:50:10.268Z,74.70
2022-08-23T19:52:38.095Z,74.90
2022-08-23T19:55:07.386Z,74.90
2022-08-23T19:57:36.254Z,75.00
2022-08-23T20:00:09.863Z,75.20
2022-08-23T20:02:37.097Z,75.20
2022-08-23T20:05:05.942Z,75.80
2022-08-23T20:07:36.265Z,75.10
2022-08-23T20:10:05.245Z,74.80
2022-08-23T20:12:33.364Z,75.00
2022-08-23T20:15:01.458Z,75.60
2022-08-23T20:17:28.690Z,75.90
2022-08-23T20:19:55.860Z,75.80
2022-08-23T20:22:41.280Z,76.70
2022-08-23T20:25:08.915Z,77.40
2022-08-23T20:27:39.048Z,77.50
2022-08-23T20:30:07.749Z,77.80
2022-08-23T20:32:35.599Z,78.30
2022-08-23T20:35:04.860Z,79.00
2022-08-23T20:37:31.943Z,79.70
2022-08-23T20:39:59.427Z,79.80
2022-08-23T20:42:27.167Z,80.20
2022-08-23T20:44:54.291Z,80.10
2022-08-23T20:47:21.497Z,80.40
2022-08-23T20:49:48.768Z,86.10
2022-08-23T20:52:17.915Z,90.90
2022-08-23T20:54:46.027Z,94.50
2022-08-23T20:57:13.278Z,99.20
2022-08-23T20:59:44.447Z,99.90
2022-08-23T21:02:12.315Z,99.60
2022-08-23T21:04:40.137Z,99.50
2022-08-23T21:07:08.531Z,99.30
2022-08-23T21:09:35.970Z,98.90
2022-08-23T21:12:03.218Z,99.10
2022-08-23T21:14:30.291Z,99.20
2022-08-23T21:16:57.350Z,98.40
2022-08-23T21:19:24.497Z,97.20
2022-08-23T21:21:51.687Z,97.00
2022-08-23T21:24:18.868Z,99.90
2022-08-23T21:26:45.873Z,99.90
2022-08-23T21:29:13.002Z,99.90
2022-08-23T21:31:40.228Z,99.90
2022-08-23T21:34:08.490Z,99.90
2022-08-23T21:36:36.391Z,99.90
2022-08-23T21:39:05.124Z,99.90
2022-08-23T21:41:32.275Z,99.90
2022-08-23T21:43:59.502Z,99.90
2022-08-23T21:46:26.794Z,99.90
2022-08-23T21:48:54.101Z,99.90
2022-08-23T21:51:21.267Z,99.90
2022-08-23T21:53:48.571Z,99.90
2022-08-23T21:56:15.811Z,99.90
2022-08-23T21:58:44.254Z,99.90
2022-08-23T22:01:12.200Z,99.90
2022-08-23T22:03:39.376Z,99.90
2022-08-23T22:06:13.120Z,87.00
2022-08-23T22:08:41.392Z,87.60
2022-08-23T22:11:08.826Z,87.60
2022-08-23T22:13:36.224Z,87.90
2022-08-23T22:16:03.907Z,88.00
2022-08-23T22:18:31.842Z,88.40
2022-08-23T22:21:00.402Z,88.10
2022-08-23T22:23:30.227Z,87.50
2022-08-23T22:26:00.109Z,87.60
2022-08-23T22:28:29.092Z,88.00
2022-08-23T22:31:02.030Z,88.00
2022-08-23T22:33:29.965Z,88.50
2022-08-23T22:36:22.011Z,89.00
2022-08-23T22:38:50.752Z,89.20
2022-08-23T22:41:20.757Z,89.50
2022-08-23T22:43:47.907Z,89.70
2022-08-23T22:46:15.229Z,89.40
2022-08-23T22:48:42.382Z,89.40
2022-08-23T22:51:15.596Z,89.90
2022-08-23T22:53:45.602Z,90.00
2022-08-23T22:56:16.322Z,90.10
2022-08-23T22:58:44.015Z,90.10
2022-08-23T23:01:22.812Z,89.60
2022-08-23T23:03:51.401Z,90.00
2022-08-23T23:06:19.688Z,90.10
2022-08-23T23:08:47.008Z,90.30
2022-08-23T23:11:16.264Z,90.10
2022-08-23T23:13:43.627Z,90.20
2022-08-23T23:16:14.818Z,90.40
2022-08-23T23:19:03.874Z,90.50
2022-08-23T23:21:36.911Z,90.40
2022-08-23T23:24:04.599Z,90.30
2022-08-23T23:26:31.861Z,90.40
2022-08-23T23:28:59.047Z,90.30
2022-08-23T23:31:26.175Z,90.30
2022-08-23T23:33:53.462Z,90.40
2022-08-23T23:36:21.114Z,90.40
2022-08-23T23:38:48.703Z,90.50
2022-08-23T23:41:15.864Z,90.70
2022-08-23T23:43:42.920Z,90.80
2022-08-23T23:46:12.370Z,90.90
2022-08-23T23:48:44.322Z,90.90
2022-08-23T23:51:14.389Z,91.00
2022-08-23T23:53:41.752Z,91.20
2022-08-23T23:56:10.701Z,91.00
2022-08-23T23:58:41.440Z,91.20
